createdAt,value
2023-04-10T00:00:38.404Z,61.47
2023-04-10T00:03:06.241Z,61.57
2023-04-10T00:05:33.527Z,61.11
2023-04-10T00:08:01.166Z,61.18
2023-04-10T00:10:31.226Z,61.26
2023-04-10T00:13:01.025Z,61.45
2023-04-10T00:15:29.021Z,61.30
2023-04-10T00:17:56.335Z,61.71
2023-04-10T00:20:23.945Z,61.65
2023-04-10T00:22:51.121Z,61.51
2023-04-10T00:25:18.349Z,61.48
2023-04-10T00:27:45.760Z,61.09
2023-04-10T00:30:14.123Z,61.03
2023-04-10T00:32:41.485Z,60.97
2023-04-10T00:35:09.327Z,61.22
2023-04-10T00:37:36.759Z,61.38
2023-04-10T00:40:06.167Z,61.46
2023-04-10T00:42:33.462Z,61.04
2023-04-10T00:45:01.008Z,60.62
2023-04-10T00:47:28.499Z,60.45
2023-04-10T00:49:56.145Z,60.09
2023-04-10T00:52:24.727Z,60.41
2023-04-10T00:54:52.761Z,60.89
2023-04-10T00:57:20.032Z,61.33
2023-04-10T00:59:48.492Z,61.50
2023-04-10T01:02:16.005Z,61.72
2023-04-10T01:04:44.231Z,61.42
2023-04-10T01:07:32.920Z,61.50
2023-04-10T01:10:29.799Z,61.41
2023-04-10T01:13:16.687Z,60.97
2023-04-10T01:16:16.256Z,60.88
2023-04-10T01:19:15.525Z,60.50
2023-04-10T01:21:43.047Z,61.25
2023-04-10T01:24:32.447Z,64.17
2023-04-10T01:27:21.178Z,64.98
2023-04-10T01:29:54.427Z,65.52
2023-04-10T01:32:23.169Z,65.57
2023-04-10T01:34:57.404Z,65.32
2023-04-10T01:37:34.693Z,64.94
2023-04-10T01:40:04.296Z,63.93
2023-04-10T01:42:34.526Z,63.18
2023-04-10T01:45:05.189Z,62.86
2023-04-10T01:47:32.862Z,62.35
2023-04-10T01:50:02.264Z,61.71
2023-04-10T01:52:31.664Z,61.71
2023-04-10T01:55:15.436Z,61.71
2023-04-10T01:57:50.637Z,61.82
2023-04-10T02:00:18.544Z,61.56
2023-04-10T02:02:46.557Z,61.65
2023-04-10T02:05:17.196Z,62.44
2023-04-10T02:07:57.850Z,62.79
2023-04-10T02:10:45.046Z,63.22
2023-04-10T02:13:16.364Z,63.01
2023-04-10T02:15:47.555Z,62.83
2023-04-10T02:18:18.119Z,63.25
2023-04-10T02:20:45.689Z,63.64
2023-04-10T02:23:15.773Z,63.83
2023-04-10T02:25:42.924Z,63.76
2023-04-10T02:28:10.109Z,63.78
2023-04-10T02:30:37.290Z,63.77
2023-04-10T02:33:04.633Z,63.46
2023-04-10T02:35:32.425Z,63.56
2023-04-10T02:37:59.619Z,64.28
2023-04-10T02:40:27.241Z,64.38
2023-04-10T02:43:07.389Z,64.02
2023-04-10T02:45:34.724Z,64.13
2023-04-10T02:48:02.171Z,64.22
2023-04-10T02:50:32.006Z,64.12
2023-04-10T02:53:00.137Z,64.48
2023-04-10T02:55:27.479Z,64.72
2023-04-10T02:57:54.629Z,65.04
2023-04-10T03:00:22.219Z,64.76
2023-04-10T03:03:21.637Z,64.34
2023-04-10T03:05:54.120Z,63.73
2023-04-10T03:08:27.690Z,63.44
2023-04-10T03:10:54.797Z,63.66
2023-04-10T03:13:23.506Z,63.37
2023-04-10T03:15:50.567Z,63.12
2023-04-10T03:18:18.293Z,63.17
2023-04-10T03:20:47.350Z,62.79
2023-04-10T03:23:14.541Z,62.57
2023-04-10T03:25:41.601Z,62.82
2023-04-10T03:28:09.524Z,63.13
2023-04-10T03:30:37.411Z,62.48
2023-04-10T03:33:04.655Z,62.21
2023-04-10T03:35:31.898Z,62.17
2023-04-10T03:38:00.136Z,62.63
2023-04-10T03:40:27.443Z,62.64
2023-04-10T03:42:54.715Z,62.94
2023-04-10T03:45:21.943Z,62.69
2023-04-10T03:47:49.109Z,62.96
2023-04-10T03:50:16.705Z,63.15
2023-04-10T03:52:52.901Z,63.30
2023-04-10T03:55:22.740Z,63.33
2023-04-10T03:57:51.497Z,63.46
2023-04-10T04:00:22.258Z,63.76
2023-04-10T04:02:52.366Z,63.60
2023-04-10T04:05:38.340Z,63.53
2023-04-10T04:08:23.808Z,63.51
2023-04-10T04:11:13.856Z,63.32
2023-04-10T04:13:53.115Z,63.48
2023-04-10T04:16:43.409Z,63.38
2023-04-10T04:19:28.700Z,63.58
2023-04-10T04:22:21.879Z,63.94
2023-04-10T04:25:11.013Z,63.91
2023-04-10T04:28:01.573Z,63.66
2023-04-10T04:30:40.995Z,63.86
2023-04-10T04:33:37.693Z,64.01
2023-04-10T04:36:23.362Z,64.28
2023-04-10T04:39:13.604Z,64.12
2023-04-10T04:41:49.593Z,64.00
2023-04-10T04:44:30.801Z,64.98
2023-04-10T04:47:27.352Z,65.16
2023-04-10T04:50:16.861Z,65.02
2023-04-10T04:53:09.973Z,64.83
2023-04-10T04:55:55.544Z,63.98
2023-04-10T04:58:41.333Z,62.68
2023-04-10T05:01:27.612Z,61.68
2023-04-10T05:04:17.760Z,63.48
2023-04-10T05:07:03.632Z,63.09
2023-04-10T05:09:49.382Z,62.23
2023-04-10T05:12:35.360Z,60.05
2023-04-10T05:15:21.135Z,57.64
2023-04-10T05:18:11.662Z,55.25
2023-04-10T05:20:56.178Z,51.04
2023-04-10T05:23:42.004Z,48.27
2023-04-10T05:26:42.727Z,46.41
2023-04-10T05:29:45.248Z,44.26
2023-04-10T05:32:32.557Z,41.98
2023-04-10T05:35:19.212Z,41.63
2023-04-10T05:38:06.506Z,39.17
2023-04-10T05:40:33.654Z,38.11
2023-04-10T05:43:22.034Z,37.43
2023-04-10T05:46:12.096Z,35.13
2023-04-10T05:49:02.245Z,36.37
2023-04-10T05:51:50.523Z,34.53
2023-04-10T05:54:32.539Z,34.11
2023-04-10T05:57:18.257Z,34.43
2023-04-10T06:00:12.128Z,35.63
2023-04-10T06:02:42.408Z,37.26
2023-04-10T06:05:17.781Z,34.20
2023-04-10T06:07:45.998Z,34.52
2023-04-10T06:10:14.824Z,33.38
2023-04-10T06:12:42.228Z,32.19
2023-04-10T06:15:11.583Z,32.00
2023-04-10T06:17:43.953Z,30.61
2023-04-10T06:20:11.296Z,31.34
2023-04-10T06:22:38.468Z,29.73
2023-04-10T06:25:06.617Z,29.38
2023-04-10T06:27:36.016Z,28.24
2023-04-10T06:30:04.239Z,28.73
2023-04-10T06:32:31.971Z,30.25
2023-04-10T06:34:59.142Z,30.34
2023-04-10T06:37:35.707Z,29.00
2023-04-10T06:40:11.960Z,29.42
2023-04-10T06:42:38.986Z,28.89
2023-04-10T06:45:23.308Z,28.86
2023-04-10T06:47:50.471Z,29.93
2023-04-10T06:50:17.624Z,28.24
2023-04-10T06:52:48.607Z,28.98
2023-04-10T06:55:16.153Z,29.09
2023-04-10T06:57:43.670Z,30.07
2023-04-10T07:00:11.053Z,29.31
2023-04-10T07:02:38.208Z,29.28
2023-04-10T07:05:05.811Z,29.63
2023-04-10T07:07:33.142Z,29.25
2023-04-10T07:10:00.224Z,28.62
2023-04-10T07:12:27.318Z,27.95
2023-04-10T07:14:54.491Z,27.84
2023-04-10T07:17:22.267Z,27.70
2023-04-10T07:19:49.309Z,27.50
2023-04-10T07:22:16.668Z,26.25
2023-04-10T07:24:44.300Z,25.51
2023-04-10T07:27:13.068Z,26.04
2023-04-10T07:29:40.120Z,25.62
2023-04-10T07:32:07.523Z,27.18
2023-04-10T07:34:34.619Z,28.58
2023-04-10T07:37:01.706Z,28.41
2023-04-10T07:39:28.892Z,27.46
2023-04-10T07:41:55.907Z,27.21
2023-04-10T07:44:23.350Z,27.48
2023-04-10T07:46:52.387Z,27.95
2023-04-10T07:49:19.486Z,28.87
2023-04-10T07:51:46.562Z,28.18
2023-04-10T07:54:13.737Z,28.50
2023-04-10T07:56:41.168Z,30.49
2023-04-10T07:59:08.511Z,31.25
2023-04-10T08:01:35.796Z,33.56
2023-04-10T08:04:05.508Z,37.68
2023-04-10T08:06:33.502Z,41.56
2023-04-10T08:09:01.838Z,43.02
2023-04-10T08:11:36.599Z,43.08
2023-04-10T08:14:05.955Z,44.46
2023-04-10T08:16:35.541Z,44.90
2023-04-10T08:19:03.919Z,45.76
2023-04-10T08:21:34.684Z,44.78
2023-04-10T08:24:03.474Z,43.95
2023-04-10T08:26:30.615Z,43.24
2023-04-10T08:28:59.934Z,44.11
2023-04-10T08:31:29.455Z,45.63
2023-04-10T08:33:57.585Z,46.39
2023-04-10T08:36:25.133Z,47.10
2023-04-10T08:38:52.236Z,47.17
2023-04-10T08:41:20.856Z,46.66
2023-04-10T08:43:49.802Z,46.78
2023-04-10T08:46:17.242Z,46.39
2023-04-10T08:49:03.098Z,47.58
2023-04-10T08:51:47.954Z,47.73
2023-04-10T08:54:26.240Z,47.56
2023-04-10T08:56:55.466Z,46.64
2023-04-10T08:59:23.108Z,46.43
2023-04-10T09:01:50.684Z,46.77
2023-04-10T09:04:18.456Z,47.94
2023-04-10T09:06:46.081Z,49.13
2023-04-10T09:09:13.278Z,48.99
2023-04-10T09:11:52.746Z,49.12
2023-04-10T09:14:32.064Z,46.76
2023-04-10T09:17:18.301Z,44.93
2023-04-10T09:19:47.262Z,44.01
2023-04-10T09:22:15.045Z,44.93
2023-04-10T09:24:47.399Z,47.46
2023-04-10T09:27:31.875Z,47.67
2023-04-10T09:30:00.417Z,49.20
2023-04-10T09:32:47.801Z,48.64
2023-04-10T09:35:16.416Z,47.45
2023-04-10T09:37:46.931Z,46.39
2023-04-10T09:40:22.405Z,45.87
2023-04-10T09:42:49.628Z,47.16
2023-04-10T09:45:20.922Z,48.13
2023-04-10T09:48:08.456Z,49.01
2023-04-10T09:50:41.163Z,50.61
2023-04-10T09:53:10.395Z,53.64
2023-04-10T09:55:37.720Z,55.57
2023-04-10T09:58:06.371Z,56.79
2023-04-10T10:00:40.565Z,55.95
2023-04-10T10:03:13.381Z,57.47
2023-04-10T10:05:43.100Z,57.36
2023-04-10T10:08:11.669Z,54.91
2023-04-10T10:10:59.379Z,55.15
2023-04-10T10:13:41.960Z,54.87
2023-04-10T10:16:09.108Z,54.39
2023-04-10T10:18:53.005Z,52.94
2023-04-10T10:21:21.124Z,53.04
2023-04-10T10:23:54.257Z,52.99
2023-04-10T10:26:24.609Z,54.51
2023-04-10T10:28:55.675Z,54.59
2023-04-10T10:31:24.539Z,56.25
2023-04-10T10:33:54.767Z,54.38
2023-04-10T10:36:22.864Z,50.86
2023-04-10T10:39:23.217Z,50.42
2023-04-10T10:41:55.006Z,50.65
2023-04-10T10:44:49.321Z,52.25
2023-04-10T10:47:24.553Z,50.74
2023-04-10T10:49:57.056Z,52.48
2023-04-10T10:52:49.300Z,52.30
2023-04-10T10:55:22.362Z,53.80
2023-04-10T10:57:54.733Z,53.39
2023-04-10T11:00:23.717Z,52.88
2023-04-10T11:03:09.284Z,54.06
2023-04-10T11:05:55.985Z,54.90
2023-04-10T11:08:44.503Z,55.72
2023-04-10T11:11:16.162Z,56.37
2023-04-10T11:14:05.991Z,55.13
2023-04-10T11:16:36.811Z,55.00
2023-04-10T11:19:13.968Z,55.83
2023-04-10T11:22:04.850Z,56.41
2023-04-10T11:25:00.712Z,57.54
2023-04-10T11:27:41.813Z,56.67
2023-04-10T11:30:31.708Z,56.47
2023-04-10T11:33:01.101Z,56.42
2023-04-10T11:35:29.156Z,56.21
2023-04-10T11:38:13.188Z,56.78
2023-04-10T11:41:04.873Z,57.32
2023-04-10T11:43:33.938Z,58.17
2023-04-10T11:46:06.273Z,54.28
2023-04-10T11:48:34.121Z,54.07
2023-04-10T11:51:08.839Z,51.85
2023-04-10T11:53:36.281Z,47.75
2023-04-10T11:56:03.376Z,49.94
2023-04-10T11:58:32.134Z,47.45
2023-04-10T12:01:03.883Z,46.67
2023-04-10T12:03:37.033Z,44.22
2023-04-10T12:06:07.794Z,44.14
2023-04-10T12:08:37.662Z,47.78
2023-04-10T12:11:05.005Z,46.29
2023-04-10T12:13:32.505Z,46.47
2023-04-10T12:16:05.104Z,46.84
2023-04-10T12:18:32.461Z,46.19
2023-04-10T12:21:00.187Z,49.47
2023-04-10T12:23:28.780Z,50.92
2023-04-10T12:26:18.133Z,50.63
2023-04-10T12:28:54.825Z,51.48
2023-04-10T12:31:28.603Z,51.36
2023-04-10T12:33:58.039Z,51.61
2023-04-10T12:36:30.264Z,52.08
2023-04-10T12:38:58.919Z,50.53
2023-04-10T12:41:29.819Z,50.15
2023-04-10T12:44:12.448Z,50.89
2023-04-10T12:46:40.840Z,49.25
2023-04-10T12:49:18.880Z,48.70
2023-04-10T12:51:51.306Z,50.69
2023-04-10T12:54:28.345Z,46.37
2023-04-10T12:56:56.128Z,45.14
2023-04-10T12:59:23.733Z,45.78
2023-04-10T13:01:51.739Z,48.99
2023-04-10T13:04:19.301Z,48.90
2023-04-10T13:06:47.323Z,48.01
2023-04-10T13:09:15.231Z,45.71
2023-04-10T13:11:44.724Z,46.58
2023-04-10T13:14:13.966Z,47.61
2023-04-10T13:16:41.222Z,47.12
2023-04-10T13:19:08.467Z,42.55
2023-04-10T13:21:35.524Z,43.96
2023-04-10T13:24:02.687Z,39.69
2023-04-10T13:26:29.857Z,44.13
2023-04-10T13:28:57.280Z,49.05
2023-04-10T13:31:24.458Z,46.51
2023-04-10T13:33:51.753Z,44.41
2023-04-10T13:36:19.172Z,50.78
2023-04-10T13:38:46.447Z,52.78
2023-04-10T13:41:13.467Z,54.75
2023-04-10T13:43:40.653Z,56.42
2023-04-10T13:46:07.834Z,57.23
2023-04-10T13:48:40.593Z,57.13
2023-04-10T13:51:08.638Z,59.39
2023-04-10T13:53:36.248Z,61.49
2023-04-10T13:56:03.567Z,61.77
2023-04-10T13:58:32.306Z,61.04
2023-04-10T14:00:59.678Z,60.20
2023-04-10T14:03:27.118Z,60.51
2023-04-10T14:05:54.626Z,59.50
2023-04-10T14:08:21.736Z,58.33
2023-04-10T14:10:50.992Z,54.56
2023-04-10T14:13:18.607Z,55.26
2023-04-10T14:15:46.246Z,56.46
2023-04-10T14:18:14.996Z,55.31
2023-04-10T14:20:42.504Z,56.09
2023-04-10T14:23:10.153Z,55.01
2023-04-10T14:25:37.260Z,56.22
2023-04-10T14:28:04.400Z,56.73
2023-04-10T14:30:33.059Z,51.03
2023-04-10T14:36:13.711Z,57.69
2023-04-10T14:38:40.963Z,55.42
2023-04-10T14:41:08.246Z,51.74
2023-04-10T14:43:35.442Z,48.83
2023-04-10T14:46:02.638Z,43.50
2023-04-10T14:48:29.946Z,48.38
2023-04-10T14:50:59.171Z,50.70
2023-04-10T14:53:26.391Z,43.26
2023-04-10T14:55:53.492Z,40.29
2023-04-10T14:58:20.743Z,36.88
2023-04-10T15:00:47.815Z,43.63
2023-04-10T15:03:15.068Z,45.67
2023-04-10T15:05:42.597Z,43.72
2023-04-10T15:08:09.833Z,36.14
2023-04-10T15:10:37.037Z,33.64
2023-04-10T15:13:04.256Z,32.44
2023-04-10T15:15:31.286Z,31.63
2023-04-10T15:17:58.537Z,32.83
2023-04-10T15:20:25.604Z,33.23
2023-04-10T15:22:52.697Z,33.75
2023-04-10T15:25:19.790Z,31.94
2023-04-10T15:27:46.808Z,31.45
2023-04-10T15:30:14.086Z,31.92
2023-04-10T15:32:41.373Z,32.22
2023-04-10T15:35:08.860Z,32.65
2023-04-10T15:37:36.826Z,33.72
2023-04-10T15:40:04.960Z,34.03
2023-04-10T15:42:33.353Z,32.63
2023-04-10T15:45:00.536Z,32.91
2023-04-10T15:47:27.758Z,33.42
2023-04-10T15:49:57.327Z,34.37
2023-04-10T15:52:24.455Z,35.17
2023-04-10T15:54:52.853Z,36.14
2023-04-10T15:57:20.025Z,36.64
2023-04-10T15:59:47.272Z,36.35
2023-04-10T16:02:14.481Z,35.64
2023-04-10T16:04:41.873Z,35.90
2023-04-10T16:07:09.150Z,36.46
2023-04-10T16:09:36.220Z,38.61
2023-04-10T16:12:03.780Z,37.89
2023-04-10T16:14:34.817Z,38.48
2023-04-10T16:17:01.878Z,39.13
2023-04-10T16:19:32.058Z,39.92
2023-04-10T16:21:59.378Z,40.31
2023-04-10T16:24:26.795Z,39.66
2023-04-10T16:26:54.429Z,38.42
2023-04-10T16:29:21.866Z,45.25
2023-04-10T16:31:49.221Z,46.37
2023-04-10T16:34:16.728Z,43.86
2023-04-10T16:36:44.056Z,35.91
2023-04-10T16:39:11.387Z,35.35
2023-04-10T16:41:38.668Z,35.21
2023-04-10T16:44:05.877Z,35.57
2023-04-10T16:46:33.296Z,37.00
2023-04-10T16:49:01.647Z,36.48
2023-04-10T16:51:30.217Z,36.42
2023-04-10T16:53:57.349Z,36.13
2023-04-10T16:56:24.405Z,36.11
2023-04-10T16:58:51.766Z,38.60
2023-04-10T17:01:26.348Z,39.11
2023-04-10T17:03:54.844Z,42.86
2023-04-10T17:06:22.360Z,39.39
2023-04-10T17:08:50.095Z,35.41
2023-04-10T17:11:17.344Z,35.47
2023-04-10T17:13:46.138Z,35.23
2023-04-10T17:16:13.647Z,36.52
2023-04-10T17:18:41.165Z,38.52
2023-04-10T17:21:17.010Z,39.03
2023-04-10T17:23:44.161Z,38.51
2023-04-10T17:26:15.625Z,38.30
2023-04-10T17:28:46.594Z,38.46
2023-04-10T17:31:14.645Z,38.66
2023-04-10T17:33:42.107Z,38.52
2023-04-10T17:36:12.392Z,38.79
2023-04-10T17:38:41.350Z,38.89
2023-04-10T17:41:13.689Z,44.01
2023-04-10T17:43:41.000Z,46.34
2023-04-10T17:46:08.233Z,47.63
2023-04-10T17:48:35.716Z,47.40
2023-04-10T17:51:07.375Z,46.95
2023-04-10T17:53:34.674Z,47.20
2023-04-10T17:56:02.475Z,46.76
2023-04-10T17:58:29.835Z,47.72
2023-04-10T18:00:56.982Z,50.24
2023-04-10T18:03:24.346Z,52.63
2023-04-10T18:05:51.544Z,54.44
2023-04-10T18:08:18.823Z,54.47
2023-04-10T18:10:46.290Z,54.42
2023-04-10T18:13:13.358Z,53.44
2023-04-10T18:15:40.531Z,53.49
2023-04-10T18:18:07.873Z,53.77
2023-04-10T18:20:35.500Z,53.86
2023-04-10T18:23:04.044Z,54.00
2023-04-10T18:25:31.746Z,54.21
2023-04-10T18:28:13.564Z,54.32
2023-04-10T18:30:42.385Z,54.02
2023-04-10T18:33:11.359Z,53.17
2023-04-10T18:35:39.173Z,49.98
2023-04-10T18:38:06.757Z,50.59
2023-04-10T18:40:34.732Z,51.21
2023-04-10T18:43:01.997Z,49.67
2023-04-10T18:45:29.320Z,49.68
2023-04-10T18:47:56.452Z,48.69
2023-04-10T18:50:23.673Z,47.89
2023-04-10T18:52:50.792Z,48.40
2023-04-10T18:55:18.052Z,48.85
2023-04-10T18:57:45.109Z,49.29
2023-04-10T19:00:13.043Z,49.95
2023-04-10T19:02:40.631Z,48.76
2023-04-10T19:05:08.667Z,48.49
2023-04-10T19:07:35.715Z,48.42
2023-04-10T19:10:03.064Z,48.02
2023-04-10T19:12:30.280Z,48.58
2023-04-10T19:14:57.337Z,50.61
2023-04-10T19:17:25.132Z,49.82
2023-04-10T19:19:53.279Z,49.53
2023-04-10T19:22:20.719Z,50.63
2023-04-10T19:24:47.896Z,51.19
2023-04-10T19:27:14.995Z,50.78
2023-04-10T19:29:42.169Z,49.63
2023-04-10T19:32:10.100Z,48.29
2023-04-10T19:34:37.214Z,48.38
2023-04-10T19:37:04.244Z,48.00
2023-04-10T19:39:31.403Z,48.15
2023-04-10T19:41:58.765Z,47.89
2023-04-10T19:44:26.161Z,48.10
2023-04-10T19:46:53.302Z,48.15
2023-04-10T19:49:20.799Z,47.51
2023-04-10T19:51:47.898Z,47.50
2023-04-10T19:54:15.245Z,47.74
2023-04-10T19:56:42.805Z,47.95
2023-04-10T19:59:10.109Z,48.35
2023-04-10T20:01:37.371Z,48.91
2023-04-10T20:04:04.955Z,49.75
2023-04-10T20:06:32.474Z,50.36
2023-04-10T20:08:59.605Z,50.67
2023-04-10T20:11:30.757Z,51.17
2023-04-10T20:13:58.191Z,51.33
2023-04-10T20:16:26.738Z,51.68
2023-04-10T20:18:55.539Z,51.92
2023-04-10T20:21:23.228Z,52.16
2023-04-10T20:23:50.549Z,52.68
2023-04-10T20:26:18.197Z,52.93
2023-04-10T20:28:45.602Z,53.03
2023-04-10T20:31:12.858Z,53.31
2023-04-10T20:33:40.233Z,53.93
2023-04-10T20:36:08.095Z,54.00
2023-04-10T20:38:35.172Z,54.24
2023-04-10T20:41:02.378Z,53.98
2023-04-10T20:43:29.382Z,54.02
2023-04-10T20:45:56.684Z,54.69
2023-04-10T20:48:23.764Z,54.60
2023-04-10T20:50:50.959Z,54.41
2023-04-10T20:53:18.088Z,54.67
2023-04-10T20:55:45.246Z,54.65
2023-04-10T20:58:12.437Z,54.81
2023-04-10T21:00:41.217Z,54.92
2023-04-10T21:03:08.955Z,54.91
2023-04-10T21:05:40.572Z,54.95
2023-04-10T21:08:09.234Z,55.26
2023-04-10T21:10:40.215Z,55.08
2023-04-10T21:13:07.401Z,55.20
2023-04-10T21:15:34.491Z,55.37
2023-04-10T21:18:01.644Z,55.52
2023-04-10T21:20:28.744Z,55.50
2023-04-10T21:22:56.242Z,55.60
2023-04-10T21:25:23.609Z,55.66
2023-04-10T21:27:50.783Z,55.75
2023-04-10T21:30:18.336Z,55.79
2023-04-10T21:32:45.968Z,56.62
2023-04-10T21:35:13.220Z,56.96
2023-04-10T21:37:40.373Z,56.95
2023-04-10T21:40:08.253Z,56.81
2023-04-10T21:42:37.900Z,56.80
2023-04-10T21:45:06.865Z,56.72
2023-04-10T21:47:33.970Z,56.73
2023-04-10T21:50:01.245Z,56.39
2023-04-10T21:52:28.244Z,56.26
2023-04-10T21:54:55.405Z,56.22
2023-04-10T21:57:22.481Z,56.23
2023-04-10T21:59:49.659Z,56.29
2023-04-10T22:02:16.848Z,56.52
2023-04-10T22:04:54.007Z,56.60
2023-04-10T22:07:22.036Z,56.59
2023-04-10T22:09:49.060Z,56.95
2023-04-10T22:12:16.351Z,57.42
2023-04-10T22:14:43.545Z,57.42
2023-04-10T22:17:11.059Z,57.44
2023-04-10T22:19:38.267Z,56.84
2023-04-10T22:22:05.489Z,56.66
2023-04-10T22:24:34.015Z,56.71
2023-04-10T22:27:02.691Z,57.12
2023-04-10T22:29:29.863Z,56.88
2023-04-10T22:31:56.915Z,56.98
2023-04-10T22:34:24.170Z,56.75
2023-04-10T22:36:52.117Z,56.51
2023-04-10T22:39:19.453Z,57.04
2023-04-10T22:41:46.607Z,57.20
2023-04-10T22:44:13.743Z,57.03
2023-04-10T22:46:40.985Z,56.97
2023-04-10T22:49:08.153Z,56.70
2023-04-10T22:51:35.434Z,57.31
2023-04-10T22:54:02.500Z,57.40
2023-04-10T22:56:29.632Z,57.21
2023-04-10T22:58:56.961Z,56.82
2023-04-10T23:01:24.208Z,56.77
2023-04-10T23:03:54.002Z,56.48
2023-04-10T23:06:21.434Z,56.51
2023-04-10T23:08:51.294Z,55.88
2023-04-10T23:11:18.544Z,56.24
2023-04-10T23:13:45.791Z,56.08
2023-04-10T23:16:12.876Z,55.75
2023-04-10T23:18:40.002Z,55.39
2023-04-10T23:21:07.772Z,55.60
2023-04-10T23:23:34.998Z,56.13
2023-04-10T23:26:02.286Z,56.59
2023-04-10T23:28:29.506Z,57.12
2023-04-10T23:30:56.671Z,57.28
2023-04-10T23:33:23.844Z,57.33
2023-04-10T23:35:51.509Z,57.46
2023-04-10T23:38:18.643Z,57.42
2023-04-10T23:40:45.803Z,56.79
2023-04-10T23:43:12.859Z,56.02
2023-04-10T23:45:40.032Z,55.41
2023-04-10T23:48:08.133Z,55.55
2023-04-10T23:50:35.246Z,55.21
2023-04-10T23:53:02.443Z,55.51
2023-04-10T23:55:29.602Z,55.22
2023-04-10T23:57:56.622Z,55.11
